Time;durP1;ratioP1;P1;durP2;ratioP2;P2;SDS_P1;SDS_P2;PMS_P1;PMS_P2;Temp;Humidity;BMP_temperature;BMP_pressure;BME280_temperature;BME280_humidity;BME280_pressure;Samples;Min_cycle;Max_cycle;Signal;HPM_P1;HPM_P2
2022/01/16 00:05:09;;;;;;;18.50;6.60;;;;;;;-2.28;72.94;97493.23;107477;1272;38607;-73
2022/01/16 00:07:40;;;;;;;19.90;9.10;;;;;;;-2.29;72.79;97497.89;107423;1269;42682;-73
2022/01/16 00:10:12;;;;;;;22.10;8.60;;;;;;;-2.32;72.71;97510.90;107438;1271;52065;-73
2022/01/16 00:12:47;;;;;;;14.80;6.60;;;;;;;-2.36;72.96;97511.88;107526;1271;39729;-73
2022/01/16 00:15:20;;;;;;;21.70;8.80;;;;;;;-2.40;72.82;97507.01;107491;1271;34134;-73
2022/01/16 00:17:55;;;;;;;19.60;9.20;;;;;;;-2.42;72.77;97497.92;107443;1271;40151;-73
2022/01/16 00:20:29;;;;;;;14.90;6.70;;;;;;;-2.43;72.62;97496.66;107471;1271;42417;-73
2022/01/16 00:23:03;;;;;;;22.20;8.70;;;;;;;-2.45;72.87;97485.65;107506;1272;37679;-73
2022/01/16 00:25:34;;;;;;;18.00;8.00;;;;;;;-2.46;72.64;97476.64;107532;1271;33354;-73
2022/01/16 00:28:05;;;;;;;16.40;7.30;;;;;;;-2.49;72.70;97471.61;107495;1271;42386;-74
2022/01/16 00:30:39;;;;;;;17.50;8.40;;;;;;;-2.52;72.55;97454.47;107461;1271;46587;-73
2022/01/16 00:33:10;;;;;;;17.20;7.00;;;;;;;-2.54;72.71;97468.39;107507;1272;32936;-73
2022/01/16 00:35:41;;;;;;;15.30;7.40;;;;;;;-2.56;72.53;97486.77;107546;1271;39373;-73
2022/01/16 00:38:12;;;;;;;16.80;7.20;;;;;;;-2.57;72.75;97504.52;107423;1270;50105;-73
2022/01/16 00:40:43;;;;;;;16.70;8.00;;;;;;;-2.61;72.59;97473.55;107561;1271;46974;-73
2022/01/16 00:43:14;;;;;;;15.60;7.50;;;;;;;-2.65;72.78;97445.02;107471;1271;42781;-73
2022/01/16 00:45:45;;;;;;;17.60;8.30;;;;;;;-2.67;72.79;97448.41;107528;1271;32778;-73
2022/01/16 00:48:16;;;;;;;19.30;7.90;;;;;;;-2.69;72.77;97479.92;107513;1270;57882;-73
2022/01/16 00:50:47;;;;;;;17.20;8.40;;;;;;;-2.75;72.78;97488.80;107489;1271;44759;-73
2022/01/16 00:53:18;;;;;;;17.00;7.80;;;;;;;-2.83;72.97;97500.10;107438;1272;31549;-73
2022/01/16 00:55:49;;;;;;;14.50;6.40;;;;;;;-2.89;72.76;97504.55;107454;1271;44789;-73
2022/01/16 00:58:20;;;;;;;11.70;6.50;;;;;;;-2.92;72.92;97483.62;107478;1271;41878;-73
2022/01/16 01:00:53;;;;;;;13.90;7.10;;;;;;;-2.94;72.98;97477.29;107503;1271;32920;-73
2022/01/16 01:03:25;;;;;;;16.10;6.70;;;;;;;-2.92;73.07;97469.73;107476;1271;44131;-73
2022/01/16 01:05:56;;;;;;;17.70;7.30;;;;;;;-2.89;72.97;97485.67;107388;1272;44512;-73
2022/01/16 01:08:29;;;;;;;14.20;7.10;;;;;;;-2.87;72.84;97496.04;107441;1271;42321;-73
2022/01/16 01:11:02;;;;;;;13.90;6.90;;;;;;;-2.88;72.86;97514.95;107564;1271;32438;-73
2022/01/16 01:13:54;;;;;;;15.50;6.30;;;;;;;-2.90;72.88;97516.48;107520;1271;33699;-74
2022/01/16 01:16:35;;;;;;;11.90;5.40;;;;;;;-2.92;72.88;97472.16;107420;1272;44403;-73
2022/01/16 01:19:04;;;;;;;;;;;;;;;-2.89;72.97;97493.13;107594;1270;30871;-73
2022/01/16 01:21:37;;;;;;;12.80;6.30;;;;;;;-2.91;72.84;97507.70;107528;1271;38909;-73
2022/01/16 01:24:09;;;;;;;14.10;6.00;;;;;;;-2.96;72.91;97491.33;107490;1271;32960;-73
2022/01/16 01:26:48;;;;;;;12.70;6.40;;;;;;;-3.03;72.74;97500.86;107480;1271;42681;-73
2022/01/16 01:29:21;;;;;;;15.40;6.10;;;;;;;-3.09;72.75;97485.98;107388;1272;41241;-73
2022/01/16 01:31:52;;;;;;;17.20;7.30;;;;;;;-3.12;72.82;97503.91;107535;1271;45318;-73
2022/01/16 01:34:23;;;;;;;17.20;8.00;;;;;;;-3.12;72.96;97417.68;107353;1272;44683;-73
2022/01/16 01:36:54;;;;;;;22.20;8.50;;;;;;;-3.12;72.99;97362.15;107454;1271;50135;-73
2022/01/16 01:39:25;;;;;;;20.80;7.70;;;;;;;-3.14;73.06;97384.17;107466;1271;40487;-73
2022/01/16 01:42:05;;;;;;;16.70;8.20;;;;;;;-3.17;73.16;97372.44;107455;1270;46085;-73
2022/01/16 01:53:04;;;;;;;22.10;10.30;;;;;;;-3.34;73.40;97381.34;107476;1271;51191;-73
2022/01/16 01:55:35;;;;;;;25.60;12.00;;;;;;;-3.49;73.54;97388.48;107493;1271;46690;-74
2022/01/16 01:58:06;;;;;;;24.30;12.30;;;;;;;-3.60;73.68;97378.54;107510;1271;39943;-73
2022/01/16 02:00:37;;;;;;;19.80;9.60;;;;;;;-3.68;73.80;97386.95;107469;1271;43261;-73
2022/01/16 02:03:15;;;;;;;26.70;11.30;;;;;;;-3.62;73.96;97384.73;107471;1272;31581;-73
2022/01/16 02:05:46;;;;;;;20.60;8.00;;;;;;;-3.62;73.86;97397.86;107487;1271;36010;-73
2022/01/16 02:08:18;;;;;;;13.50;6.80;;;;;;;-3.56;74.05;97368.16;107419;1269;36667;-73
2022/01/16 02:10:52;;;;;;;16.20;7.80;;;;;;;-3.46;73.79;97358.80;107541;1271;32370;-73
2022/01/16 02:13:26;;;;;;;21.20;7.80;;;;;;;-3.39;73.67;97371.95;107561;1271;41110;-73
2022/01/16 02:30:42;;;;;;;17.10;7.90;;;;;;;-3.46;73.46;97417.37;107597;1271;38560;-73
2022/01/16 02:34:29;;;;;;;13.60;7.30;;;;;;;-3.49;73.25;97411.66;107416;1272;31483;-73
2022/01/16 02:36:27;;;;;;;16.90;7.50;;;;;;;-3.54;73.53;97427.63;107484;1271;34525;-73
2022/01/16 02:39:06;;;;;;;18.30;8.50;;;;;;;-3.60;73.50;97419.05;107499;1271;43552;-73
2022/01/16 02:41:37;;;;;;;22.30;9.30;;;;;;;-3.63;73.64;97417.67;107547;1271;43582;-73
2022/01/16 02:44:18;;;;;;;20.40;9.30;;;;;;;-3.67;73.71;97408.08;107441;1271;49372;-73
2022/01/16 02:46:50;;;;;;;18.50;7.50;;;;;;;-3.73;73.80;97395.27;107480;1271;42168;-73
2022/01/16 02:49:23;;;;;;;15.00;5.90;;;;;;;-3.78;73.85;97401.27;107513;1271;32359;-73
2022/01/16 02:51:56;;;;;;;19.00;8.90;;;;;;;-3.82;74.13;97405.59;107503;1271;40901;-73
2022/01/16 02:54:31;;;;;;;20.60;8.10;;;;;;;-3.87;74.26;97399.45;107457;1272;33437;-73
2022/01/16 02:57:02;;;;;;;17.20;8.10;;;;;;;-3.89;74.42;97396.41;107553;1271;37777;-73
2022/01/16 02:59:33;;;;;;;15.60;8.50;;;;;;;-3.88;74.42;97400.23;107451;1271;43214;-73
2022/01/16 03:02:06;;;;;;;20.00;7.40;;;;;;;-3.84;74.42;97405.15;107531;1271;35004;-73
2022/01/16 03:04:37;;;;;;;19.00;7.90;;;;;;;-3.72;74.43;97400.03;107489;1271;37027;-73
2022/01/16 03:07:08;;;;;;;15.70;6.60;;;;;;;-3.52;74.46;97395.40;107436;1272;33253;-73
2022/01/16 03:09:58;;;;;;;16.20;6.90;;;;;;;-3.43;74.03;97395.58;107486;1271;44419;-73
2022/01/16 03:12:29;;;;;;;20.40;7.20;;;;;;;-3.47;73.84;97387.57;107535;1271;38113;-73
2022/01/16 03:15:00;;;;;;;14.30;7.00;;;;;;;-3.53;73.74;97387.10;107526;1271;34698;-73
2022/01/16 03:17:39;;;;;;;11.50;5.40;;;;;;;-3.55;73.89;97379.83;107446;1272;41160;-73
2022/01/16 03:22:59;;;;;;;;;;;;;;;-3.60;73.63;97372.60;107612;1271;41077;-73
2022/01/16 03:25:29;;;;;;;18.60;7.40;;;;;;;-3.62;73.61;97369.38;107518;1271;46087;-73
2022/01/16 03:28:00;;;;;;;19.50;8.70;;;;;;;-3.57;73.60;97371.81;107538;1271;42752;-73
2022/01/16 03:30:31;;;;;;;14.70;4.70;;;;;;;-3.53;73.60;97369.29;107541;1271;43041;-73
2022/01/16 03:33:02;;;;;;;16.00;6.40;;;;;;;-3.50;73.26;97364.83;107373;1274;45538;-73
2022/01/16 03:35:33;;;;;;;14.40;6.80;;;;;;;-3.52;73.50;97367.08;107468;1271;41872;-73
2022/01/16 03:38:05;;;;;;;16.30;7.50;;;;;;;-3.58;73.39;97359.95;107465;1272;45819;-74
2022/01/16 03:40:36;;;;;;;18.10;8.30;;;;;;;-3.64;73.27;97354.01;107470;1271;42931;-73
2022/01/16 03:43:16;;;;;;;14.00;6.90;;;;;;;-3.69;73.25;97352.98;107476;1271;49665;-73
2022/01/16 03:45:48;;;;;;;15.60;7.50;;;;;;;-3.73;73.33;97348.86;107417;1271;43589;-73
2022/01/16 03:48:21;;;;;;;20.90;6.90;;;;;;;-3.77;73.39;97340.89;107490;1270;51567;-73
2022/01/16 03:50:52;;;;;;;16.50;7.00;;;;;;;-3.79;73.43;97335.34;107410;1271;52040;-73
2022/01/16 03:53:23;;;;;;;12.70;6.50;;;;;;;-3.76;73.54;97328.77;107453;1272;32566;-73
2022/01/16 03:55:54;;;;;;;15.10;7.30;;;;;;;-3.73;73.43;97323.09;107482;1272;52029;-73
2022/01/16 03:58:24;;;;;;;14.40;6.90;;;;;;;-3.74;73.30;97322.58;107430;1272;47442;-73
2022/01/16 04:00:55;;;;;;;12.90;5.60;;;;;;;-3.75;73.42;97327.80;107466;1271;44985;-73
2022/01/16 04:03:26;;;;;;;10.70;5.10;;;;;;;-3.75;73.35;97327.60;107489;1272;37643;-73
2022/01/16 04:05:57;;;;;;;16.50;6.90;;;;;;;-3.74;73.37;97328.61;107449;1272;31618;-73
2022/01/16 04:08:28;;;;;;;13.10;6.90;;;;;;;-3.73;73.39;97315.29;107371;1270;44939;-73
2022/01/16 04:11:00;;;;;;;13.80;4.80;;;;;;;-3.68;73.06;97320.17;107587;1270;40984;-73
2022/01/16 04:13:43;;;;;;;18.10;7.90;;;;;;;-3.63;72.79;97318.18;107660;1270;34174;-73
2022/01/16 04:16:14;;;;;;;16.80;8.00;;;;;;;-3.65;72.85;97311.29;107499;1270;43347;-74
2022/01/16 04:18:49;;;;;;;17.40;7.80;;;;;;;-3.72;72.71;97306.56;107490;1270;46329;-73
2022/01/16 04:21:20;;;;;;;18.20;8.60;;;;;;;-3.79;72.78;97301.14;107528;1270;41446;-73
2022/01/16 04:23:53;;;;;;;13.50;6.30;;;;;;;-3.83;72.58;97309.77;107533;1270;32514;-73
2022/01/16 04:26:25;;;;;;;14.20;7.30;;;;;;;-3.88;72.72;97306.17;107512;1270;34481;-73
2022/01/16 04:28:57;;;;;;;17.70;8.30;;;;;;;-3.93;72.64;97307.72;107491;1271;39254;-73
2022/01/16 04:31:27;;;;;;;16.60;7.40;;;;;;;-3.98;72.54;97307.38;107547;1271;33136;-73
2022/01/16 04:33:58;;;;;;;15.80;6.20;;;;;;;-3.90;72.17;97299.92;107553;1271;43002;-73
2022/01/16 04:36:32;;;;;;;9.50;4.70;;;;;;;-3.65;71.46;97302.57;107484;1272;43707;-73
2022/01/16 04:39:07;;;;;;;11.10;5.80;;;;;;;-3.50;70.81;97295.84;107396;1272;45259;-74
2022/01/16 04:44:27;;;;;;;11.80;5.00;;;;;;;-3.45;70.16;97295.41;107534;1271;29899;-73
2022/01/16 04:46:58;;;;;;;14.00;6.60;;;;;;;-3.44;70.03;97302.45;107545;1271;41290;-73
2022/01/16 04:49:29;;;;;;;13.50;4.60;;;;;;;-3.47;70.08;97297.20;107533;1271;46793;-73
2022/01/16 04:52:00;;;;;;;11.30;4.90;;;;;;;-3.51;69.87;97299.53;107567;1271;32720;-73
2022/01/16 04:54:31;;;;;;;12.30;5.30;;;;;;;-3.50;69.70;97295.29;107568;1271;45743;-73
2022/01/16 04:57:02;;;;;;;10.90;4.70;;;;;;;-3.45;69.36;97292.02;107508;1271;40049;-73
2022/01/16 04:59:33;;;;;;;14.70;6.30;;;;;;;-3.40;69.23;97293.98;107455;1271;46154;-73
2022/01/16 05:02:05;;;;;;;14.30;5.90;;;;;;;-3.42;69.11;97285.80;107471;1272;40288;-73
2022/01/16 05:04:36;;;;;;;13.40;7.20;;;;;;;-3.52;69.27;97280.20;107454;1271;42500;-73
2022/01/16 05:07:08;;;;;;;18.50;6.70;;;;;;;-3.63;69.37;97275.84;107451;1271;38422;-73
2022/01/16 05:09:38;;;;;;;14.20;6.70;;;;;;;-3.67;69.41;97274.91;107548;1270;34714;-73
2022/01/16 05:12:23;;;;;;;16.20;6.90;;;;;;;-3.68;69.35;97277.48;107495;1271;41728;-73
2022/01/16 05:17:42;;;;;;;12.70;5.60;;;;;;;-3.71;69.22;97277.67;107476;1271;42966;-74
2022/01/16 05:20:14;;;;;;;12.00;5.20;;;;;;;-3.64;68.73;97276.52;107478;1271;39262;-73
2022/01/16 05:22:45;;;;;;;12.50;5.00;;;;;;;-3.49;67.92;97267.78;107456;1272;37195;-73
2022/01/16 05:25:18;;;;;;;11.00;5.10;;;;;;;-3.39;67.78;97268.98;107464;1270;37322;-73
2022/01/16 05:27:49;;;;;;;11.10;4.40;;;;;;;-3.33;67.17;97267.27;107542;1270;31231;-73
2022/01/16 05:30:19;;;;;;;12.00;4.40;;;;;;;-3.26;66.70;97258.86;107484;1272;37149;-73
2022/01/16 05:32:50;;;;;;;9.80;4.00;;;;;;;-3.23;66.30;97259.73;107441;1271;48321;-73
2022/01/16 05:35:21;;;;;;;10.30;5.20;;;;;;;-3.22;66.16;97258.23;107467;1271;40218;-73
2022/01/16 05:37:52;;;;;;;6.00;3.20;;;;;;;-3.20;65.53;97255.40;107463;1271;39556;-73
2022/01/16 05:40:23;;;;;;;8.40;4.30;;;;;;;-3.20;65.59;97249.85;107522;1271;35267;-73
2022/01/16 05:42:54;;;;;;;8.00;4.00;;;;;;;-3.21;65.56;97242.65;107462;1271;41598;-73
2022/01/16 05:45:28;;;;;;;12.80;6.00;;;;;;;-3.24;65.39;97240.64;107499;1270;31897;-74
2022/01/16 05:47:59;;;;;;;11.20;4.70;;;;;;;-3.24;65.22;97240.31;107552;1272;35057;-73
2022/01/16 05:50:31;;;;;;;11.90;4.10;;;;;;;-3.17;64.54;97244.17;107578;1271;42446;-73
2022/01/16 05:53:03;;;;;;;7.90;4.00;;;;;;;-3.06;63.66;97248.82;107531;1272;32701;-73
2022/01/16 05:55:36;;;;;;;9.80;4.00;;;;;;;-2.99;62.96;97243.45;107482;1272;46649;-74
2022/01/16 05:58:08;;;;;;;13.30;5.50;;;;;;;-2.93;62.34;97238.68;107506;1272;41348;-74
2022/01/16 06:00:40;;;;;;;9.90;4.70;;;;;;;-2.93;62.49;97236.31;107529;1271;32813;-73
2022/01/16 06:03:10;;;;;;;17.60;5.60;;;;;;;-2.95;62.24;97235.30;107464;1271;40543;-74
2022/01/16 06:05:41;;;;;;;13.50;5.30;;;;;;;-2.96;62.03;97243.82;107424;1272;44098;-73
2022/01/16 06:08:13;;;;;;;9.50;4.70;;;;;;;-2.94;61.67;97235.36;107465;1270;38880;-74
2022/01/16 06:10:44;;;;;;;8.40;4.00;;;;;;;-2.94;61.33;97243.34;107457;1271;47307;-73
2022/01/16 06:13:15;;;;;;;14.30;5.80;;;;;;;-2.95;61.15;97238.05;107483;1271;42305;-73
2022/01/16 06:15:46;;;;;;;8.10;3.70;;;;;;;-2.96;60.71;97248.88;107473;1271;42289;-73
2022/01/16 06:18:17;;;;;;;8.80;4.10;;;;;;;-2.98;60.99;97249.44;107466;1271;51647;-73
2022/01/16 06:20:48;;;;;;;10.00;5.40;;;;;;;-2.99;61.16;97250.00;107404;1272;35179;-73
2022/01/16 06:23:19;;;;;;;9.30;4.10;;;;;;;-2.97;61.23;97249.02;107435;1270;35209;-73
2022/01/16 06:25:54;;;;;;;10.00;4.20;;;;;;;-2.98;61.22;97242.70;107462;1271;41239;-74
2022/01/16 06:28:27;;;;;;;8.30;4.20;;;;;;;-3.01;61.28;97239.00;107447;1271;44869;-73
2022/01/16 06:30:58;;;;;;;10.10;4.40;;;;;;;-3.02;61.08;97227.02;107499;1271;46393;-73
2022/01/16 06:33:29;;;;;;;10.10;3.40;;;;;;;-3.04;61.09;97219.09;107461;1272;45668;-73
2022/01/16 06:36:01;;;;;;;8.90;4.90;;;;;;;-3.03;60.47;97215.35;107496;1271;37139;-73
2022/01/16 06:38:32;;;;;;;9.00;5.10;;;;;;;-3.00;60.54;97213.60;107486;1272;33054;-73
2022/01/16 06:41:03;;;;;;;11.20;4.30;;;;;;;-2.97;60.29;97211.63;107428;1271;46361;-73
2022/01/16 06:43:34;;;;;;;10.30;4.10;;;;;;;-2.92;59.81;97204.33;107461;1271;42931;-73
2022/01/16 06:46:05;;;;;;;9.20;3.40;;;;;;;-2.86;59.59;97203.05;107439;1270;47606;-74
2022/01/16 06:48:36;;;;;;;9.70;4.10;;;;;;;-2.82;59.32;97203.51;107343;1272;60957;-73
2022/01/16 06:51:06;;;;;;;7.30;3.50;;;;;;;-2.78;58.91;97206.29;107503;1271;37527;-74
2022/01/16 06:53:38;;;;;;;10.80;3.60;;;;;;;-2.77;58.59;97209.29;107418;1272;42386;-73
2022/01/16 06:56:08;;;;;;;9.70;4.00;;;;;;;-2.75;58.84;97208.86;107476;1271;32622;-74
2022/01/16 06:58:39;;;;;;;10.60;4.00;;;;;;;-2.74;58.63;97209.44;107426;1272;32970;-73
2022/01/16 07:01:10;;;;;;;7.70;3.50;;;;;;;-2.65;57.95;97208.40;107445;1272;50285;-74
2022/01/16 07:03:41;;;;;;;10.10;4.20;;;;;;;-2.45;57.61;97215.05;107485;1272;33925;-74
2022/01/16 07:06:12;;;;;;;13.50;5.70;;;;;;;-2.21;57.41;97214.05;107370;1272;46747;-74
2022/01/16 07:08:45;;;;;;;9.80;4.60;;;;;;;-1.92;56.49;97219.77;107463;1269;31670;-74
2022/01/16 07:11:16;;;;;;;11.50;4.50;;;;;;;-1.55;56.39;97216.27;107482;1271;33045;-73
2022/01/16 07:13:46;;;;;;;8.70;4.30;;;;;;;-1.29;55.87;97212.45;107318;1274;45860;-74
2022/01/16 07:16:17;;;;;;;8.50;4.00;;;;;;;-1.15;55.54;97212.97;107436;1272;37830;-74
2022/01/16 07:18:48;;;;;;;9.60;5.20;;;;;;;-0.95;55.23;97205.29;107360;1272;43781;-74
2022/01/16 07:21:19;;;;;;;7.50;4.30;;;;;;;-0.70;55.02;97197.60;107488;1271;36286;-74
2022/01/16 07:23:50;;;;;;;11.20;5.40;;;;;;;-0.38;54.09;97199.78;107455;1272;43721;-74
2022/01/16 07:26:21;;;;;;;11.50;5.80;;;;;;;-0.14;54.11;97197.95;107458;1272;39477;-74
2022/01/16 07:28:52;;;;;;;10.20;5.50;;;;;;;0.17;54.21;97199.36;107502;1272;30892;-73
2022/01/16 07:31:23;;;;;;;13.80;5.30;;;;;;;0.54;53.23;97194.11;107464;1272;39507;-74
2022/01/16 07:33:56;;;;;;;11.30;5.30;;;;;;;0.77;52.70;97196.20;107443;1271;44358;-74
2022/01/16 07:36:27;;;;;;;12.30;5.00;;;;;;;1.02;52.62;97196.50;107554;1272;30847;-74
2022/01/16 07:38:57;;;;;;;11.70;5.00;;;;;;;1.49;52.63;97200.05;107494;1271;32345;-74
2022/01/16 07:41:28;;;;;;;11.30;5.40;;;;;;;1.81;51.90;97198.49;107395;1270;48453;-74
2022/01/16 07:43:59;;;;;;;7.70;4.90;;;;;;;2.08;51.82;97194.58;107425;1273;44545;-74
2022/01/16 07:46:30;;;;;;;8.30;4.10;;;;;;;2.32;50.98;97191.98;107537;1272;39864;-74
2022/01/16 07:49:01;;;;;;;7.60;4.20;;;;;;;2.41;50.01;97190.55;107533;1270;34763;-74
2022/01/16 07:51:32;;;;;;;8.90;4.50;;;;;;;2.28;47.48;97181.49;107432;1272;44387;-74
2022/01/16 07:54:03;;;;;;;9.50;4.50;;;;;;;2.09;47.17;97177.39;107551;1271;31304;-74
2022/01/16 07:56:35;;;;;;;11.50;4.70;;;;;;;1.99;46.31;97182.02;107433;1272;49125;-75
2022/01/16 07:59:06;;;;;;;6.60;3.70;;;;;;;1.74;45.13;97183.08;107399;1272;36030;-73
2022/01/16 08:01:37;;;;;;;10.30;5.00;;;;;;;1.42;44.33;97181.75;107449;1272;34347;-74
2022/01/16 08:04:08;;;;;;;4.90;2.90;;;;;;;1.33;45.09;97186.52;107353;1272;41673;-74
2022/01/16 08:06:39;;;;;;;11.60;5.70;;;;;;;1.34;44.70;97184.23;107446;1271;37497;-74
2022/01/16 08:09:10;;;;;;;9.50;4.80;;;;;;;1.47;45.71;97182.37;107354;1272;39778;-74
2022/01/16 08:11:42;;;;;;;10.60;5.20;;;;;;;1.79;46.20;97182.38;107490;1271;35282;-74
2022/01/16 08:14:13;;;;;;;11.70;6.00;;;;;;;1.84;44.13;97177.67;107483;1272;39857;-73
2022/01/16 08:16:44;;;;;;;9.60;4.70;;;;;;;1.65;43.70;97171.49;107411;1272;31387;-74
2022/01/16 08:19:15;;;;;;;8.20;4.30;;;;;;;1.66;44.53;97166.87;107467;1271;41150;-74
2022/01/16 08:21:46;;;;;;;9.40;4.70;;;;;;;1.65;43.64;97164.14;107378;1272;44451;-74
2022/01/16 08:24:17;;;;;;;12.30;5.60;;;;;;;1.57;43.94;97156.05;107517;1272;31873;-74
2022/01/16 08:26:52;;;;;;;8.70;4.50;;;;;;;1.60;44.15;97154.31;107465;1271;36227;-73
2022/01/16 08:29:23;;;;;;;7.70;3.70;;;;;;;1.44;42.61;97154.58;107455;1272;31488;-73
2022/01/16 08:31:57;;;;;;;9.50;4.50;;;;;;;1.24;42.16;97156.68;107505;1271;35750;-74
2022/01/16 08:34:28;;;;;;;10.20;4.60;;;;;;;1.12;42.48;97143.77;107507;1272;32364;-74
2022/01/16 08:36:59;;;;;;;12.60;5.10;;;;;;;1.14;43.47;97143.77;107485;1271;50770;-74
2022/01/16 08:39:30;;;;;;;9.10;3.70;;;;;;;1.32;43.57;97144.45;107525;1271;33864;-74
2022/01/16 08:42:01;;;;;;;12.40;5.40;;;;;;;1.36;43.78;97142.42;107535;1272;31336;-74
2022/01/16 08:44:33;;;;;;;11.60;5.40;;;;;;;1.40;43.25;97132.64;107509;1272;32731;-74
2022/01/16 08:47:04;;;;;;;11.10;5.50;;;;;;;1.43;44.07;97129.55;107422;1272;33012;-74
2022/01/16 08:49:35;;;;;;;12.20;5.00;;;;;;;1.58;44.82;97128.78;107494;1270;38605;-74
2022/01/16 08:52:10;;;;;;;12.70;5.10;;;;;;;1.79;44.63;97123.09;107447;1272;43626;-74
2022/01/16 08:54:40;;;;;;;9.40;4.80;;;;;;;1.94;44.37;97117.02;107427;1272;36306;-73
2022/01/16 08:57:11;;;;;;;15.60;6.10;;;;;;;2.04;44.19;97111.23;107472;1272;32617;-73
2022/01/16 08:59:42;;;;;;;10.60;5.20;;;;;;;2.15;44.63;97099.82;107496;1271;32576;-73
2022/01/16 09:02:13;;;;;;;12.40;6.00;;;;;;;2.17;43.87;97099.68;107444;1272;43307;-73
2022/01/16 09:04:44;;;;;;;12.00;5.70;;;;;;;2.20;44.18;97094.02;107450;1271;35429;-73
2022/01/16 09:07:16;;;;;;;10.80;5.00;;;;;;;2.25;44.30;97094.23;107426;1272;36032;-73
2022/01/16 09:09:46;;;;;;;11.70;5.40;;;;;;;2.37;44.27;97092.16;107471;1272;40920;-73
2022/01/16 09:12:17;;;;;;;10.30;5.10;;;;;;;2.40;44.19;97083.17;107468;1271;37799;-73
2022/01/16 09:14:49;;;;;;;10.80;5.40;;;;;;;2.43;44.10;97075.41;107439;1272;45205;-73
2022/01/16 09:17:20;;;;;;;13.00;6.30;;;;;;;2.48;43.91;97078.94;107448;1272;41265;-73
2022/01/16 09:19:51;;;;;;;15.80;7.60;;;;;;;2.44;43.37;97072.06;107476;1271;33654;-73
2022/01/16 09:22:25;;;;;;;14.50;6.70;;;;;;;2.48;44.25;97069.25;107471;1271;35802;-73
2022/01/16 09:24:56;;;;;;;13.70;6.20;;;;;;;2.62;44.06;97066.70;107467;1271;35529;-73
2022/01/16 09:27:27;;;;;;;10.70;5.30;;;;;;;2.72;43.36;97062.66;107432;1271;45818;-73
2022/01/16 09:29:58;;;;;;;13.80;5.70;;;;;;;2.72;42.44;97046.35;107463;1272;35383;-73
2022/01/16 09:32:30;;;;;;;12.10;6.70;;;;;;;2.68;41.59;97043.01;107392;1274;46267;-73
2022/01/16 09:35:02;;;;;;;11.80;6.20;;;;;;;2.72;42.65;97033.02;107560;1272;38821;-73
2022/01/16 09:37:33;;;;;;;11.20;5.80;;;;;;;2.76;42.08;97030.83;107711;1271;32160;-73
2022/01/16 09:40:06;;;;;;;16.60;8.00;;;;;;;2.75;41.70;97031.05;107469;1272;33486;-73
2022/01/16 09:42:38;;;;;;;10.90;5.30;;;;;;;2.71;42.54;97028.91;107484;1272;34874;-73
2022/01/16 09:45:12;;;;;;;12.90;6.80;;;;;;;2.77;42.26;97018.02;107469;1272;33558;-73
2022/01/16 09:47:45;;;;;;;12.10;6.10;;;;;;;2.92;43.35;97018.57;107504;1271;34845;-73
2022/01/16 09:50:23;;;;;;;13.30;7.20;;;;;;;3.10;42.80;97012.92;107430;1272;39317;-73
2022/01/16 09:52:56;;;;;;;11.30;5.70;;;;;;;3.21;42.58;97012.41;107562;1270;33032;-73
2022/01/16 09:55:26;;;;;;;12.80;5.70;;;;;;;3.12;42.39;97009.27;107490;1272;36544;-73
2022/01/16 09:57:59;;;;;;;18.80;7.10;;;;;;;3.20;41.60;96996.84;107505;1271;32128;-73
2022/01/16 10:00:31;;;;;;;11.50;7.30;;;;;;;3.30;41.97;96997.22;107556;1270;31516;-73
2022/01/16 10:03:02;;;;;;;14.00;6.90;;;;;;;3.45;41.25;96990.05;107561;1271;38342;-73
2022/01/16 10:05:36;;;;;;;14.90;6.90;;;;;;;3.48;40.76;96991.23;107569;1271;39290;-74
2022/01/16 10:08:09;;;;;;;13.60;6.60;;;;;;;3.53;39.92;96987.76;107414;1273;41783;-73
2022/01/16 10:10:43;;;;;;;10.70;5.60;;;;;;;3.67;40.86;96985.05;107486;1271;40338;-74
2022/01/16 10:13:33;;;;;;;10.30;5.40;;;;;;;3.83;40.75;96984.64;107452;1272;34228;-73
2022/01/16 10:16:04;;;;;;;11.90;6.30;;;;;;;3.94;40.74;96982.72;107431;1272;33677;-74
2022/01/16 10:18:37;;;;;;;17.50;6.50;;;;;;;4.17;41.16;96976.05;107443;1272;38213;-74
2022/01/16 10:21:09;;;;;;;11.50;5.90;;;;;;;4.18;40.99;96969.94;107493;1272;30726;-73
2022/01/16 10:23:43;;;;;;;13.50;6.20;;;;;;;4.11;40.42;96961.23;107485;1272;34192;-73
2022/01/16 10:26:25;;;;;;;14.50;6.20;;;;;;;4.14;39.95;96963.61;107451;1271;45482;-73
2022/01/16 10:28:56;;;;;;;13.60;6.20;;;;;;;4.15;39.67;96948.95;107476;1271;30028;-73
2022/01/16 10:31:28;;;;;;;10.70;5.10;;;;;;;4.10;39.13;96948.73;107411;1272;37102;-73
2022/01/16 10:33:59;;;;;;;12.20;6.10;;;;;;;4.13;39.02;96942.25;107534;1271;31590;-73
2022/01/16 10:36:38;;;;;;;8.80;4.70;;;;;;;4.14;38.87;96944.45;107544;1271;32180;-73
2022/01/16 10:39:12;;;;;;;11.40;4.90;;;;;;;4.18;38.55;96939.13;107488;1271;28685;-73
2022/01/16 10:41:43;;;;;;;8.20;4.90;;;;;;;4.19;38.40;96939.83;107402;1271;43432;-73
2022/01/16 10:44:29;;;;;;;8.80;4.80;;;;;;;4.10;37.59;96934.19;107462;1272;34758;-74
2022/01/16 10:47:20;;;;;;;11.50;5.00;;;;;;;4.11;38.43;96932.37;107501;1271;45222;-73
2022/01/16 10:50:04;;;;;;;9.30;4.70;;;;;;;4.16;37.39;96925.81;107335;1271;176307;-73
2022/01/16 10:52:46;;;;;;;9.90;4.60;;;;;;;4.24;37.97;96912.48;107561;1271;35320;-73
2022/01/16 10:55:17;;;;;;;10.40;4.80;;;;;;;4.24;37.10;96910.25;107480;1272;36253;-73
2022/01/16 10:57:48;;;;;;;8.20;4.60;;;;;;;4.21;36.75;96900.09;107467;1271;32747;-73
2022/01/16 11:00:22;;;;;;;13.50;5.20;;;;;;;4.15;37.14;96906.21;107472;1271;41468;-73
2022/01/16 11:02:54;;;;;;;10.00;5.40;;;;;;;4.16;37.41;96904.89;107494;1271;28133;-73
2022/01/16 11:05:27;;;;;;;14.10;5.40;;;;;;;4.18;37.67;96890.02;107554;1271;45367;-73
2022/01/16 11:08:03;;;;;;;9.60;4.80;;;;;;;4.20;37.40;96895.02;107543;1271;30726;-73
2022/01/16 11:10:35;;;;;;;11.70;4.50;;;;;;;4.21;37.47;96881.67;107503;1271;35663;-73
2022/01/16 11:13:08;;;;;;;8.90;4.90;;;;;;;4.25;37.56;96885.86;107555;1270;39876;-74
2022/01/16 11:15:42;;;;;;;12.10;5.50;;;;;;;4.30;37.27;96877.66;107508;1270;36209;-73
2022/01/16 11:18:14;;;;;;;8.90;4.90;;;;;;;4.27;36.84;96875.73;107558;1270;42906;-73
2022/01/16 11:20:55;;;;;;;10.20;5.90;;;;;;;4.28;37.13;96870.17;107453;1271;41495;-73
2022/01/16 11:23:33;;;;;;;10.40;5.00;;;;;;;4.43;37.24;96870.23;107485;1271;41078;-73
2022/01/16 11:26:07;;;;;;;9.30;5.30;;;;;;;4.53;36.95;96858.24;107487;1271;41150;-74
2022/01/16 11:28:38;;;;;;;10.80;4.40;;;;;;;4.64;36.48;96858.98;107469;1271;40881;-73
2022/01/16 11:31:11;;;;;;;15.20;6.10;;;;;;;4.69;36.66;96852.50;107321;1273;34857;-73
2022/01/16 11:33:44;;;;;;;10.70;5.60;;;;;;;4.77;36.99;96856.95;107454;1271;42142;-73
2022/01/16 11:36:18;;;;;;;12.90;4.90;;;;;;;4.92;37.19;96852.48;107456;1272;36110;-73
2022/01/16 11:38:52;;;;;;;9.70;5.40;;;;;;;5.00;36.68;96849.38;107430;1272;34265;-73
2022/01/16 11:41:31;;;;;;;11.40;5.30;;;;;;;5.05;36.28;96853.15;107503;1272;30565;-73
2022/01/16 11:44:04;;;;;;;8.90;4.50;;;;;;;5.13;36.36;96849.59;107574;1272;29899;-73
2022/01/16 11:46:41;;;;;;;13.30;5.80;;;;;;;5.15;36.05;96840.85;107507;1271;29658;-74
2022/01/16 11:49:17;;;;;;;13.30;5.00;;;;;;;5.20;36.20;96846.02;107464;1271;36578;-73
2022/01/16 11:52:09;;;;;;;13.90;6.20;;;;;;;5.25;35.74;96851.23;107554;1270;41403;-73
2022/01/16 11:54:45;;;;;;;10.60;5.30;;;;;;;5.32;36.02;96850.42;107554;1270;35433;-73
2022/01/16 11:57:25;;;;;;;14.10;6.40;;;;;;;5.25;36.14;96848.70;107527;1270;30398;-73
2022/01/16 12:00:08;;;;;;;16.10;6.50;;;;;;;5.15;35.99;96858.35;107493;1271;34019;-73
2022/01/16 12:02:45;;;;;;;12.30;6.20;;;;;;;5.22;36.58;96853.42;107443;1272;32288;-73
2022/01/16 12:05:24;;;;;;;15.40;5.90;;;;;;;5.42;36.22;96851.48;107539;1270;35142;-73
2022/01/16 12:08:08;;;;;;;11.90;6.00;;;;;;;5.52;36.02;96846.02;107428;1270;34886;-72
2022/01/16 12:10:57;;;;;;;8.70;4.70;;;;;;;5.68;35.53;96839.27;107492;1271;35515;-72
2022/01/16 12:13:53;;;;;;;13.00;6.40;;;;;;;5.68;34.43;96844.47;107566;1270;30245;-72
2022/01/16 12:16:43;;;;;;;13.40;6.60;;;;;;;5.75;34.20;96831.09;107432;1271;43371;-73
2022/01/16 12:19:36;;;;;;;10.80;4.90;;;;;;;5.82;34.84;96835.16;107513;1271;31000;-73
2022/01/16 12:22:08;;;;;;;6.90;4.30;;;;;;;5.88;34.14;96829.65;107462;1272;30896;-72
2022/01/16 12:24:44;;;;;;;13.50;5.50;;;;;;;5.89;34.43;96830.84;107517;1271;35504;-72